KABI/ABI METAR and TAF weather

Enter ICAO airport designator
Station Type Date Time Source
KABI METAR 2022/01/19 19:52 UTC NOAA

KABI 191952Z 34021G28KT 10SM CLR 12/01 A3002 RMK AO2 PK WND 35028/1952 SLP157 T01220006


Station Type Date Time Source
KABI Decoded METAR 2022/01/19 19:52 UTC NOAA

ABILENE REGIONAL AIRPORT, TX, United States (KABI) 32-25N 099-41W 548M
Jan 19, 2022 - 02:52 PM EST / 2022.01.19 1952 UTC
Wind: from the NNW (340 degrees) at 24 MPH (21 KT) gusting to 32 MPH (28 KT):0
Visibility: 10 mile(s):0
Sky conditions: clear
Temperature: 54.0 F (12.2 C)
Dew Point: 33.1 F (0.6 C)
Relative Humidity: 44%
Pressure (altimeter): 30.02 in. Hg (1016 hPa)
ob: KABI 191952Z 34021G28KT 10SM CLR 12/01 A3002 RMK AO2 PK WND 35028/1952 SLP157 T01220006
cycle: 20

Station Type Date Time Source
KABI TAF 2022/01/19 18:48 UTC NOAA

TAF KABI 191746Z 1918/2018 36017G25KT P6SM SCT050
FM192100 01016G24KT P6SM BKN035
FM200100 01016G23KT P6SM BKN050

Example: see airport list